Time;durP1;ratioP1;P1;durP2;ratioP2;P2;SDS_P1;SDS_P2;PMS_P1;PMS_P2;Temp;Humidity;BMP_temperature;BMP_pressure;BME280_temperature;BME280_humidity;BME280_pressure;Samples;Min_cycle;Max_cycle;Signal;HPM_P1;HPM_P2
2023/10/14 00:01:04;;;;;;;7.28;2.17;;;;;;;20.66;56.18;98022.22;5010807;23;20018;-75
2023/10/14 00:03:32;;;;;;;;;;;;;;;20.79;55.91;98024.31;5044809;28;20057;-75
2023/10/14 00:06:06;;;;;;;8.18;2.55;;;;;;;20.84;56.04;98028.94;5046888;28;19982;-75
2023/10/14 00:08:33;;;;;;;7.68;2.25;;;;;;;20.86;56.04;98031.41;5048240;28;20313;-75
2023/10/14 00:11:05;;;;;;;8.75;2.47;;;;;;;20.85;56.47;98024.25;5048144;28;20084;-75
2023/10/14 00:13:32;;;;;;;4.28;2.20;;;;;;;21.03;55.82;98020.78;5049383;28;20025;-75
2023/10/14 00:16:01;;;;;;;6.35;2.10;;;;;;;21.00;55.77;98015.84;5044165;28;20089;-75
2023/10/14 00:18:26;;;;;;;5.93;2.10;;;;;;;20.92;56.16;98022.00;5046001;28;20087;-75
2023/10/14 00:20:52;;;;;;;3.30;1.70;;;;;;;20.82;56.65;98024.84;5044235;28;20029;-75
2023/10/14 00:23:17;;;;;;;6.45;2.00;;;;;;;20.70;57.19;98026.06;5033795;28;20022;-75
2023/10/14 00:25:43;;;;;;;4.75;2.28;;;;;;;20.62;57.83;98023.06;5042016;28;20274;-75
2023/10/14 00:28:19;;;;;;;8.10;2.33;;;;;;;20.62;58.45;98026.69;5048978;28;20028;-75
2023/10/14 00:30:45;;;;;;;6.05;2.38;;;;;;;20.70;58.94;98006.81;5036490;28;20057;-75
2023/10/14 00:33:12;;;;;;;7.50;2.60;;;;;;;20.81;61.31;98001.22;5034081;28;20036;-75
2023/10/14 00:35:40;;;;;;;6.38;2.58;;;;;;;20.89;63.70;97993.16;5045659;28;20025;-75
2023/10/14 00:38:09;;;;;;;7.18;3.03;;;;;;;20.91;66.68;98006.63;5044603;28;20060;-75
2023/10/14 00:40:37;;;;;;;;;;;;;;;20.82;69.41;98009.16;5043627;28;20100;-75
2023/10/14 00:43:04;;;;;;;8.18;2.88;;;;;;;20.87;73.98;98008.28;5035999;28;19913;-75
2023/10/14 00:45:30;;;;;;;6.07;2.78;;;;;;;20.88;79.25;97996.19;5039191;28;20036;-75
2023/10/14 00:47:59;;;;;;;7.03;2.58;;;;;;;20.94;87.17;97995.03;5055830;28;20084;-75
2023/10/14 00:50:34;;;;;;;7.70;2.80;;;;;;;20.99;94.97;97994.97;5045641;28;20030;-75
2023/10/14 00:53:05;;;;;;;7.97;2.97;;;;;;;21.03;100.00;97996.03;5040427;28;20350;-75
2023/10/14 00:55:45;;;;;;;7.40;2.72;;;;;;;21.13;100.00;97997.84;5043836;28;20071;-75
2023/10/14 00:58:21;;;;;;;8.10;3.20;;;;;;;21.17;100.00;97976.91;5043580;28;20096;-75
2023/10/14 01:01:00;;;;;;;9.52;3.45;;;;;;;21.22;100.00;97980.41;5043587;28;20450;-75
2023/10/14 01:03:33;;;;;;;7.40;3.25;;;;;;;21.38;100.00;97980.28;5038551;28;20143;-75
2023/10/14 01:08:45;;;;;;;7.05;2.75;;;;;;;21.40;100.00;97980.78;5046716;28;20040;-75
2023/10/14 01:11:11;;;;;;;6.80;3.00;;;;;;;21.39;100.00;97976.41;5023638;28;20037;-75
2023/10/14 01:13:36;;;;;;;8.57;3.28;;;;;;;21.33;100.00;97978.38;5057639;28;20276;-75
2023/10/14 01:16:08;;;;;;;8.25;3.13;;;;;;;21.27;100.00;97981.47;5045640;28;20036;-75
2023/10/14 01:18:38;;;;;;;6.88;3.13;;;;;;;21.26;100.00;97980.66;5044645;28;20032;-75
2023/10/14 01:21:03;;;;;;;16.20;3.10;;;;;;;21.20;100.00;97960.63;5033340;28;20323;-75
2023/10/14 01:23:28;;;;;;;6.22;3.85;;;;;;;21.19;100.00;97972.72;5038633;28;20059;-75
2023/10/14 01:25:54;;;;;;;9.68;3.20;;;;;;;21.15;100.00;97968.94;5058243;28;20230;-75
2023/10/14 01:28:29;;;;;;;8.90;2.92;;;;;;;21.07;100.00;97960.53;5045524;28;20025;-75
2023/10/14 01:33:56;;;;;;;9.43;3.20;;;;;;;21.07;100.00;97966.84;5043576;28;20025;-75
2023/10/14 01:36:32;;;;;;;7.72;3.20;;;;;;;21.06;100.00;97956.13;5038498;28;20056;-75
2023/10/14 01:39:01;;;;;;;9.88;3.25;;;;;;;21.10;100.00;97963.50;5042200;28;20021;-75
2023/10/14 01:41:30;;;;;;;10.65;3.47;;;;;;;21.19;100.00;97958.16;5050413;28;20034;-75
2023/10/14 01:43:58;;;;;;;9.50;3.13;;;;;;;21.19;100.00;97960.91;5043245;28;20040;-75
2023/10/14 01:46:27;;;;;;;8.52;3.30;;;;;;;21.18;100.00;97965.59;5041262;28;20021;-75
2023/10/14 01:48:52;;;;;;;;;;;;;;;21.16;100.00;97973.31;5041509;28;20093;-75
2023/10/14 01:51:19;;;;;;;6.85;3.40;;;;;;;21.00;100.00;97966.34;5033243;28;19912;-74
2023/10/14 01:53:44;;;;;;;6.57;3.00;;;;;;;20.99;100.00;97970.22;5039382;28;20067;-74
2023/10/14 01:56:10;;;;;;;10.57;4.18;;;;;;;20.96;100.00;97984.56;5039664;28;20299;-74
2023/10/14 01:58:36;;;;;;;10.45;3.40;;;;;;;20.88;100.00;97963.19;5039618;28;20048;-74
2023/10/14 02:03:43;;;;;;;9.43;4.05;;;;;;;20.77;100.00;97963.28;5038201;28;20017;-74
2023/10/14 02:06:27;;;;;;;9.35;3.70;;;;;;;20.72;100.00;97963.38;5044028;28;20265;-74
2023/10/14 02:08:55;;;;;;;10.20;4.13;;;;;;;20.69;100.00;97969.41;5043108;28;20021;-74
2023/10/14 02:11:22;;;;;;;9.27;4.30;;;;;;;20.60;100.00;97973.09;5048755;28;20079;-74
2023/10/14 02:13:51;;;;;;;10.15;4.30;;;;;;;20.56;100.00;97945.38;5060500;28;20021;-74
2023/10/14 02:16:18;;;;;;;8.10;4.40;;;;;;;20.67;100.00;97963.41;5045235;28;20021;-74
2023/10/14 02:18:44;;;;;;;10.40;4.35;;;;;;;20.65;100.00;97954.63;5052705;28;20028;-74
2023/10/14 02:21:11;;;;;;;9.77;4.03;;;;;;;20.58;100.00;97954.97;5055894;28;20025;-74
2023/10/14 02:23:45;;;;;;;9.00;4.13;;;;;;;20.61;100.00;97952.75;5035900;28;20092;-74
2023/10/14 02:26:12;;;;;;;7.53;3.88;;;;;;;20.57;100.00;97956.06;5028111;28;20026;-74
2023/10/14 02:28:40;;;;;;;6.45;4.10;;;;;;;20.50;100.00;97946.50;5043193;28;20029;-74
2023/10/14 02:31:17;;;;;;;10.98;4.18;;;;;;;20.35;100.00;97950.19;5039322;28;20118;-74
2023/10/14 02:33:45;;;;;;;10.50;3.97;;;;;;;20.40;100.00;97963.06;5045864;28;20140;-74
2023/10/14 02:36:17;;;;;;;9.77;4.13;;;;;;;20.31;100.00;97951.88;5042024;28;20017;-74
2023/10/14 02:38:55;;;;;;;8.32;4.43;;;;;;;20.30;100.00;97947.50;5041758;28;20017;-74
2023/10/14 02:41:21;;;;;;;8.07;4.10;;;;;;;20.27;100.00;97943.38;5036289;28;20092;-74
2023/10/14 02:43:48;;;;;;;7.70;3.60;;;;;;;20.27;100.00;97953.56;5041200;28;20088;-74
2023/10/14 02:46:19;;;;;;;9.98;4.18;;;;;;;20.23;100.00;97950.56;5050098;28;20268;-74
2023/10/14 02:48:55;;;;;;;7.97;4.32;;;;;;;20.19;100.00;97957.75;5040695;28;20025;-75
2023/10/14 02:51:31;;;;;;;10.10;3.90;;;;;;;20.14;100.00;97949.53;5040497;28;20029;-76
2023/10/14 02:54:02;;;;;;;8.55;4.03;;;;;;;20.10;100.00;97948.50;5041902;28;20083;-74
2023/10/14 02:56:46;;;;;;;11.23;4.53;;;;;;;20.06;100.00;97950.97;5042728;28;20218;-74
2023/10/14 02:59:15;;;;;;;10.30;3.90;;;;;;;20.05;100.00;97948.53;5030757;28;20230;-74
2023/10/14 03:01:41;;;;;;;;;;;;;;;20.00;100.00;97952.13;5042552;28;20025;-74
2023/10/14 03:04:07;;;;;;;6.05;4.10;;;;;;;19.91;100.00;97934.59;5037578;28;19909;-75
2023/10/14 03:06:46;;;;;;;6.70;3.85;;;;;;;20.00;100.00;97943.06;5040929;28;20326;-74
2023/10/14 03:09:12;;;;;;;8.70;3.75;;;;;;;20.01;100.00;97947.44;5030001;28;20338;-74
2023/10/14 03:11:39;;;;;;;8.02;4.30;;;;;;;20.05;100.00;97954.03;5041213;28;20009;-74
2023/10/14 03:14:04;;;;;;;6.90;3.72;;;;;;;19.96;100.00;97942.00;5034805;28;20100;-74
2023/10/14 03:16:29;;;;;;;8.85;3.92;;;;;;;19.97;100.00;97940.91;5045385;28;20029;-75
2023/10/14 03:18:55;;;;;;;10.07;4.05;;;;;;;20.05;100.00;97951.28;5040927;28;20075;-75
2023/10/14 03:21:30;;;;;;;6.82;3.80;;;;;;;19.95;100.00;97930.19;5040469;28;20033;-75
2023/10/14 03:23:57;;;;;;;7.85;4.03;;;;;;;19.96;100.00;97933.75;5039058;28;20031;-75
2023/10/14 03:26:28;;;;;;;9.63;4.45;;;;;;;19.98;100.00;97928.81;5042998;28;20084;-75
2023/10/14 03:28:53;;;;;;;10.27;4.10;;;;;;;19.98;100.00;97923.31;5035042;28;20345;-75
2023/10/14 03:31:24;;;;;;;11.50;4.38;;;;;;;20.00;100.00;97926.59;5046606;28;20056;-75
2023/10/14 03:33:52;;;;;;;12.30;4.22;;;;;;;20.00;100.00;97915.63;5052123;28;20322;-75
2023/10/14 03:36:20;;;;;;;10.40;3.97;;;;;;;19.98;100.00;97923.31;5043112;28;20056;-75
2023/10/14 03:38:55;;;;;;;13.75;4.10;;;;;;;20.02;100.00;97930.69;5036108;28;20100;-75
2023/10/14 03:41:21;;;;;;;10.30;4.45;;;;;;;20.03;100.00;97928.75;5038014;28;20056;-75
2023/10/14 03:46:40;;;;;;;9.32;4.28;;;;;;;19.96;100.00;97909.84;5042456;28;20048;-74
2023/10/14 03:49:06;;;;;;;13.07;4.45;;;;;;;19.97;100.00;97925.25;5031396;28;20037;-74
2023/10/14 03:51:32;;;;;;;6.40;4.13;;;;;;;19.96;100.00;97922.78;5032309;28;20045;-74
2023/10/14 03:54:06;;;;;;;10.45;4.18;;;;;;;19.90;100.00;97922.00;5039315;28;20048;-75
2023/10/14 03:56:32;;;;;;;11.27;4.22;;;;;;;19.87;100.00;97919.81;5028800;28;20017;-74
2023/10/14 03:59:01;;;;;;;13.05;4.60;;;;;;;19.90;100.00;97909.06;5042598;28;20192;-74
2023/10/14 04:04:16;;;;;;;8.23;4.10;;;;;;;19.89;100.00;97887.41;5029465;28;20036;-74
2023/10/14 04:06:43;;;;;;;9.80;4.68;;;;;;;19.94;100.00;97917.59;5042093;28;20092;-74
2023/10/14 04:09:10;;;;;;;10.05;4.25;;;;;;;19.91;100.00;97976.63;5040961;28;20022;-74
2023/10/14 04:11:38;;;;;;;18.17;5.43;;;;;;;19.29;100.00;98067.69;5040220;28;20017;-74
2023/10/14 04:19:42;;;;;;;7.82;3.35;;;;;;;16.75;100.00;98079.22;5040440;28;20025;-75
2023/10/14 04:22:01;;;;;;;8.90;2.87;;;;;;;16.52;100.00;98088.59;5035675;28;20036;-75
2023/10/14 04:30:03;;;;;;;6.55;2.58;;;;;;;16.39;100.00;98114.41;5023586;28;20062;-76
2023/10/14 04:32:28;;;;;;;11.40;3.03;;;;;;;16.31;100.00;98103.94;5042176;28;20250;-75
2023/10/14 04:34:56;;;;;;;8.63;2.85;;;;;;;16.31;100.00;98109.41;5043686;28;20025;-76
2023/10/14 04:37:21;;;;;;;9.23;3.17;;;;;;;16.22;100.00;98108.22;5041917;28;20021;-76
2023/10/14 04:39:48;;;;;;;8.27;2.90;;;;;;;16.26;100.00;98120.28;5038845;28;20144;-75
2023/10/14 04:44:54;;;;;;;8.68;3.10;;;;;;;16.18;100.00;98116.09;5045175;28;20017;-76
2023/10/14 04:47:27;;;;;;;16.52;3.20;;;;;;;16.14;100.00;98136.00;5035918;28;20040;-75
2023/10/14 04:49:53;;;;;;;5.68;3.03;;;;;;;16.09;100.00;98135.94;5030559;28;20024;-76
2023/10/14 04:52:18;;;;;;;9.40;2.92;;;;;;;16.07;100.00;98122.53;5060704;28;20009;-78
2023/10/14 04:54:53;;;;;;;9.15;2.78;;;;;;;16.09;100.00;98141.38;5044330;28;20025;-75
2023/10/14 04:57:24;;;;;;;8.23;3.15;;;;;;;15.96;100.00;98137.97;5037113;28;20025;-74
2023/10/14 04:59:53;;;;;;;8.25;3.35;;;;;;;16.00;100.00;98143.72;5040175;28;20022;-74
2023/10/14 05:02:24;;;;;;;5.68;3.28;;;;;;;15.97;100.00;98150.50;5041338;28;20025;-74
2023/10/14 05:04:51;;;;;;;9.85;3.00;;;;;;;15.89;100.00;98145.50;5042970;28;20036;-73
2023/10/14 05:07:18;;;;;;;7.00;2.95;;;;;;;15.92;100.00;98142.25;5037261;28;20272;-74
2023/10/14 05:09:55;;;;;;;8.23;2.90;;;;;;;15.92;100.00;98139.53;5028980;28;20029;-74
2023/10/14 05:12:24;;;;;;;6.85;3.05;;;;;;;15.97;100.00;98138.78;5027978;28;20017;-73
2023/10/14 05:14:50;;;;;;;7.95;2.97;;;;;;;15.99;100.00;98139.34;5040370;28;20021;-72
2023/10/14 05:17:16;;;;;;;8.05;2.95;;;;;;;16.05;100.00;98138.31;5036507;28;20202;-72
2023/10/14 05:19:43;;;;;;;9.75;2.88;;;;;;;16.09;100.00;98139.47;5041626;28;20021;-72
2023/10/14 05:24:52;;;;;;;10.25;2.58;;;;;;;16.20;100.00;98148.59;5035375;28;20040;-78
2023/10/14 05:27:19;;;;;;;4.20;2.33;;;;;;;16.13;100.00;98147.97;5040240;28;20315;-75
2023/10/14 05:29:51;;;;;;;7.97;3.05;;;;;;;16.12;100.00;98146.34;5043258;28;20029;-77
2023/10/14 05:32:23;;;;;;;10.82;2.47;;;;;;;16.13;100.00;98148.78;5032716;28;20017;-75
2023/10/14 05:34:52;;;;;;;4.32;2.47;;;;;;;16.26;100.00;98163.13;5043507;28;20025;-73
2023/10/14 05:37:21;;;;;;;11.23;2.50;;;;;;;16.22;100.00;98171.00;5045095;28;20029;-75
2023/10/14 05:39:46;;;;;;;6.50;2.72;;;;;;;16.19;100.00;98168.75;5039603;28;20021;-74
2023/10/14 05:42:20;;;;;;;6.65;2.60;;;;;;;16.22;100.00;98173.75;5037023;28;20087;-74
2023/10/14 05:44:57;;;;;;;9.50;2.88;;;;;;;16.25;100.00;98173.22;5042132;28;20128;-74
2023/10/14 05:47:22;;;;;;;6.80;2.45;;;;;;;16.38;100.00;98186.47;5052483;28;20027;-74
2023/10/14 05:49:48;;;;;;;9.43;3.03;;;;;;;16.47;100.00;98177.81;5048525;28;20092;-73
2023/10/14 05:52:14;;;;;;;8.93;2.50;;;;;;;16.45;100.00;98172.59;5039704;28;20217;-75
2023/10/14 05:54:41;;;;;;;6.82;2.28;;;;;;;16.47;100.00;98170.44;5037582;28;20105;-75
2023/10/14 05:57:10;;;;;;;9.57;2.60;;;;;;;16.50;100.00;98171.84;5037925;28;20026;-77
2023/10/14 05:59:36;;;;;;;7.47;2.45;;;;;;;16.48;100.00;98154.88;5042407;28;20064;-73
2023/10/14 06:02:04;;;;;;;4.97;2.40;;;;;;;16.61;100.00;98182.63;5060731;23;20042;-76
2023/10/14 06:04:29;;;;;;;7.70;2.33;;;;;;;16.50;100.00;98164.47;5014718;28;20064;-74
2023/10/14 06:06:55;;;;;;;9.05;2.65;;;;;;;16.60;100.00;98159.09;5020353;28;20029;-74
2023/10/14 06:09:21;;;;;;;8.73;2.47;;;;;;;16.78;100.00;98173.53;5001103;28;20022;-72
2023/10/14 06:11:46;;;;;;;5.68;2.38;;;;;;;16.73;100.00;98155.13;4999099;28;20026;-73
2023/10/14 06:14:12;;;;;;;3.80;1.95;;;;;;;16.76;100.00;98145.59;5001829;28;20026;-73
2023/10/14 06:16:38;;;;;;;8.13;2.30;;;;;;;16.85;100.00;98172.22;5017998;28;20096;-73
2023/10/14 06:19:05;;;;;;;8.63;2.20;;;;;;;16.87;100.00;98174.69;5005921;28;20033;-73
2023/10/14 06:21:33;;;;;;;11.90;2.63;;;;;;;16.81;100.00;98154.69;5014914;28;20018;-74
2023/10/14 06:24:04;;;;;;;7.93;2.10;;;;;;;16.86;100.00;98168.41;5000846;28;20057;-74
2023/10/14 06:26:30;;;;;;;5.20;2.10;;;;;;;17.00;100.00;98182.47;5002032;28;20018;-74
2023/10/14 06:28:58;;;;;;;7.43;2.30;;;;;;;17.03;100.00;98183.88;5000718;28;20250;-74
2023/10/14 06:31:24;;;;;;;4.45;2.35;;;;;;;17.04;100.00;98180.84;5001120;28;20025;-76
2023/10/14 06:33:49;;;;;;;5.95;2.05;;;;;;;17.08;100.00;98170.22;5003787;28;20103;-72
2023/10/14 06:36:14;;;;;;;4.82;1.85;;;;;;;17.19;100.00;98171.16;5014329;28;20042;-71
2023/10/14 06:38:46;;;;;;;6.10;1.80;;;;;;;17.26;100.00;98169.81;5023831;28;20025;-73
2023/10/14 06:41:12;;;;;;;3.92;1.80;;;;;;;17.33;100.00;98166.03;5013457;28;20056;-72
2023/10/14 06:43:38;;;;;;;7.65;2.22;;;;;;;17.43;100.00;98177.06;5010695;28;20013;-72
2023/10/14 06:46:04;;;;;;;4.68;1.50;;;;;;;17.44;100.00;98167.75;5013038;28;20101;-75
2023/10/14 06:48:30;;;;;;;6.57;1.63;;;;;;;17.50;100.00;98172.16;5005811;28;20029;-74
2023/10/14 06:50:56;;;;;;;8.13;1.80;;;;;;;17.52;100.00;98176.28;5009041;28;20018;-74
2023/10/14 06:53:21;;;;;;;6.65;1.92;;;;;;;17.50;100.00;98183.09;5012861;28;20026;-73
2023/10/14 06:55:46;;;;;;;2.70;1.30;;;;;;;17.47;100.00;98186.38;5011821;28;20029;-73
2023/10/14 06:58:27;;;;;;;4.35;1.40;;;;;;;17.53;100.00;98188.06;5023271;28;20037;-73
2023/10/14 07:00:53;;;;;;;7.63;1.13;;;;;;;17.65;100.00;98205.06;5012575;28;20022;-73
2023/10/14 07:03:18;;;;;;;5.25;1.20;;;;;;;17.62;100.00;98197.41;5006366;28;20052;-73
2023/10/14 07:05:48;;;;;;;5.80;1.10;;;;;;;17.72;100.00;98202.13;5013741;28;20046;-74
2023/10/14 07:08:14;;;;;;;5.30;1.33;;;;;;;17.88;100.00;98190.19;5010973;28;20064;-73
2023/10/14 07:10:40;;;;;;;4.50;0.82;;;;;;;18.13;100.00;98208.66;4999106;28;20033;-74
2023/10/14 07:13:05;;;;;;;3.40;1.10;;;;;;;18.06;100.00;98186.19;4991464;28;20022;-73
2023/10/14 07:15:36;;;;;;;4.15;1.00;;;;;;;18.12;100.00;98207.00;5001999;28;20315;-73
2023/10/14 07:18:01;;;;;;;3.65;0.90;;;;;;;18.21;100.00;98199.13;5016597;28;20037;-74
2023/10/14 07:20:30;;;;;;;4.05;1.45;;;;;;;17.88;100.00;98205.81;4996023;28;20022;-74
2023/10/14 07:22:58;;;;;;;5.47;1.10;;;;;;;18.10;100.00;98209.22;5020514;28;20038;-73
2023/10/14 07:25:23;;;;;;;2.35;1.00;;;;;;;18.24;100.00;98203.25;4993700;28;20030;-74
2023/10/14 07:27:51;;;;;;;2.80;0.80;;;;;;;18.10;100.00;98189.19;5012923;28;20029;-74
2023/10/14 07:30:17;;;;;;;3.25;0.90;;;;;;;17.88;100.00;98208.53;5008218;28;20046;-74
2023/10/14 07:32:45;;;;;;;4.82;1.02;;;;;;;17.80;100.00;98204.38;4996184;28;20065;-73
2023/10/14 07:35:17;;;;;;;1.92;0.82;;;;;;;18.71;100.00;98185.84;5015303;28;20034;-74
2023/10/14 07:37:51;;;;;;;3.97;0.77;;;;;;;18.64;100.00;98172.41;5015283;28;20021;-74
2023/10/14 07:40:23;;;;;;;2.15;0.95;;;;;;;18.69;100.00;98188.03;5024286;28;20098;-74
2023/10/14 07:43:05;;;;;;;5.47;0.90;;;;;;;18.77;100.00;98187.53;5008835;28;20215;-75
2023/10/14 07:45:33;;;;;;;1.27;0.50;;;;;;;19.03;100.00;98148.06;4989044;28;20204;-74
2023/10/14 07:48:00;;;;;;;1.03;0.53;;;;;;;21.26;100.00;98156.72;5000476;28;20024;-75
2023/10/14 07:50:31;;;;;;;1.88;0.60;;;;;;;24.25;100.00;98159.22;5032549;28;20253;-74
2023/10/14 07:53:07;;;;;;;2.65;0.73;;;;;;;24.91;100.00;98162.47;5008939;28;20014;-75
2023/10/14 07:55:35;;;;;;;2.28;0.80;;;;;;;25.50;100.00;98194.88;5013545;28;20061;-75
2023/10/14 07:58:00;;;;;;;4.85;1.10;;;;;;;26.72;100.00;98204.50;5006475;28;20041;-75
2023/10/14 08:00:37;;;;;;;2.30;0.75;;;;;;;24.59;100.00;98182.88;5009701;28;20348;-74
2023/10/14 08:03:06;;;;;;;1.40;0.57;;;;;;;26.06;100.00;98210.00;5005905;28;20030;-75
2023/10/14 08:05:34;;;;;;;3.53;0.75;;;;;;;25.34;100.00;98208.28;5002635;28;20022;-75
2023/10/14 08:08:05;;;;;;;1.88;0.73;;;;;;;23.73;100.00;98213.88;5016762;28;20046;-75
2023/10/14 08:10:31;;;;;;;3.05;0.80;;;;;;;22.24;100.00;98219.91;5016431;28;20017;-75
2023/10/14 08:12:57;;;;;;;2.08;0.65;;;;;;;22.58;100.00;98217.00;5006661;28;20314;-75
2023/10/14 08:15:22;;;;;;;3.65;0.65;;;;;;;21.33;100.00;98228.75;4999200;28;20029;-75
2023/10/14 08:17:51;;;;;;;2.60;0.80;;;;;;;20.31;100.00;98227.41;5019742;28;20117;-74
2023/10/14 08:20:19;;;;;;;1.30;0.57;;;;;;;19.78;100.00;98242.66;5014683;28;20021;-74
2023/10/14 08:22:47;;;;;;;2.88;1.02;;;;;;;19.27;100.00;98252.53;5008124;28;20045;-74
2023/10/14 08:25:13;;;;;;;1.10;0.43;;;;;;;19.05;100.00;98249.25;5002376;28;20045;-74
2023/10/14 08:27:42;;;;;;;2.03;0.68;;;;;;;18.59;100.00;98274.56;5002701;28;20028;-75
2023/10/14 08:30:11;;;;;;;2.33;0.55;;;;;;;18.11;100.00;98275.72;5017210;28;20018;-73
2023/10/14 08:32:40;;;;;;;3.67;0.70;;;;;;;17.71;100.00;98307.16;5019611;28;20379;-73
2023/10/14 08:35:14;;;;;;;4.40;0.55;;;;;;;17.38;100.00;98305.53;5017594;28;20036;-72
2023/10/14 08:37:43;;;;;;;0.80;0.50;;;;;;;17.09;100.00;98312.09;5007876;28;20033;-73
2023/10/14 08:40:15;;;;;;;2.30;0.60;;;;;;;16.81;100.00;98318.63;5010900;28;20026;-73
2023/10/14 08:42:43;;;;;;;2.47;0.60;;;;;;;16.88;100.00;98339.47;5011002;28;20014;-73
2023/10/14 08:45:10;;;;;;;1.70;0.65;;;;;;;16.76;100.00;98359.50;5019425;28;20030;-73
2023/10/14 08:47:35;;;;;;;1.83;0.70;;;;;;;16.67;100.00;98352.84;5005932;28;20029;-73
2023/10/14 08:50:01;;;;;;;4.63;1.00;;;;;;;16.53;100.00;98371.53;5025039;28;20021;-73
2023/10/14 08:52:29;;;;;;;1.85;0.60;;;;;;;16.42;100.00;98366.97;5018082;28;20022;-74
2023/10/14 08:54:55;;;;;;;1.88;0.63;;;;;;;16.46;100.00;98365.41;5008327;28;20028;-74
2023/10/14 08:57:22;;;;;;;2.95;0.20;;;;;;;16.53;100.00;98376.13;5010955;28;20026;-74
2023/10/14 08:59:49;;;;;;;0.65;0.20;;;;;;;16.47;100.00;98374.41;4991982;28;20026;-73
2023/10/14 09:02:14;;;;;;;1.02;0.38;;;;;;;16.60;100.00;98390.44;5017256;28;20089;-73
2023/10/14 09:04:40;;;;;;;1.92;0.43;;;;;;;16.58;100.00;98385.25;5013440;28;20339;-72
2023/10/14 09:07:12;;;;;;;0.47;0.30;;;;;;;16.70;100.00;98374.19;5015971;28;20742;-71
2023/10/14 09:09:38;;;;;;;1.38;0.30;;;;;;;16.73;100.00;98370.94;4999215;28;20072;-71
2023/10/14 09:12:10;;;;;;;0.35;0.13;;;;;;;16.79;100.00;98383.63;5019361;28;20021;-71
2023/10/14 09:14:37;;;;;;;0.22;0.10;;;;;;;16.69;100.00;98382.63;5019039;28;20045;-72
2023/10/14 09:17:08;;;;;;;1.33;0.30;;;;;;;16.61;100.00;98392.06;4994555;28;20021;-73
2023/10/14 09:19:44;;;;;;;1.13;0.20;;;;;;;16.25;100.00;98388.88;5008728;28;20342;-74
2023/10/14 09:22:19;;;;;;;0.50;0.20;;;;;;;16.02;100.00;98386.31;5020024;28;20385;-74
2023/10/14 09:24:45;;;;;;;0.25;0.20;;;;;;;15.79;100.00;98360.84;4995223;28;20033;-73
2023/10/14 09:27:11;;;;;;;0.35;0.20;;;;;;;15.95;100.00;98394.66;5002101;28;20026;-73
2023/10/14 09:29:36;;;;;;;0.80;0.20;;;;;;;15.94;100.00;98401.19;5005075;28;20096;-73
2023/10/14 09:32:04;;;;;;;0.50;0.30;;;;;;;16.07;100.00;98421.88;5020141;28;20030;-73
2023/10/14 09:34:30;;;;;;;0.93;0.20;;;;;;;15.83;100.00;98413.84;5015454;28;20084;-74
2023/10/14 09:36:55;;;;;;;0.57;0.28;;;;;;;15.83;100.00;98408.41;5014670;28;20611;-73
2023/10/14 09:39:28;;;;;;;0.88;0.30;;;;;;;15.96;100.00;98397.16;4997425;28;20346;-73
2023/10/14 09:41:53;;;;;;;1.75;0.38;;;;;;;16.08;100.00;98418.88;5009467;28;20018;-73
2023/10/14 09:44:21;;;;;;;3.10;0.52;;;;;;;16.23;100.00;98412.84;5018325;28;20093;-74
2023/10/14 09:46:47;;;;;;;0.28;0.20;;;;;;;16.49;100.00;98416.78;5016201;28;20022;-74
2023/10/14 09:49:15;;;;;;;0.98;0.22;;;;;;;17.06;100.00;98413.75;4987124;28;20022;-75
2023/10/14 09:51:48;;;;;;;0.75;0.10;;;;;;;17.30;100.00;98403.34;5007605;28;20030;-73
2023/10/14 09:54:15;;;;;;;1.35;0.20;;;;;;;17.62;100.00;98388.91;5002547;28;20032;-73
2023/10/14 09:56:42;;;;;;;0.82;0.30;;;;;;;17.93;100.00;98394.69;4998633;28;20033;-73
2023/10/14 09:59:09;;;;;;;0.50;0.20;;;;;;;18.51;100.00;98379.19;5014112;28;20033;-73
2023/10/14 10:01:35;;;;;;;0.10;0.10;;;;;;;19.08;100.00;98368.53;5012317;28;20239;-73
2023/10/14 10:04:15;;;;;;;1.40;0.20;;;;;;;19.22;100.00;98369.66;5005507;28;20029;-74
2023/10/14 10:07:15;;;;;;;2.47;0.30;;;;;;;18.06;100.00;98371.50;5014420;28;20026;-73
2023/10/14 10:10:13;;;;;;;1.52;0.20;;;;;;;18.35;100.00;98366.50;5010861;28;20322;-73
2023/10/14 10:12:41;;;;;;;0.80;0.30;;;;;;;18.59;100.00;98347.72;5013922;28;20021;-73
2023/10/14 10:15:07;;;;;;;2.58;1.02;;;;;;;18.22;100.00;98366.97;4997092;28;20026;-73
2023/10/14 10:17:34;;;;;;;0.50;0.30;;;;;;;18.27;100.00;98364.25;5011247;28;20046;-74
2023/10/14 10:20:16;;;;;;;0.32;0.28;;;;;;;17.88;100.00;98375.47;4995782;28;20060;-75
2023/10/14 10:22:50;;;;;;;1.25;0.40;;;;;;;18.32;100.00;98359.63;5011451;28;20026;-74
2023/10/14 10:25:39;;;;;;;0.20;0.20;;;;;;;18.87;100.00;98360.22;5012437;28;20022;-74
2023/10/14 10:28:25;;;;;;;0.40;0.20;;;;;;;19.21;100.00;98352.38;5009940;28;20042;-74
2023/10/14 10:30:52;;;;;;;1.08;0.30;;;;;;;19.04;100.00;98357.25;4990742;28;20026;-74
2023/10/14 10:33:17;;;;;;;2.55;0.47;;;;;;;18.53;100.00;98355.09;5000580;28;20231;-74
2023/10/14 10:35:59;;;;;;;1.65;0.40;;;;;;;18.79;100.00;98358.81;5020712;28;20032;-74
2023/10/14 10:38:28;;;;;;;0.35;0.20;;;;;;;18.46;100.00;98359.97;5001728;28;20064;-74
2023/10/14 10:41:29;;;;;;;0.80;0.30;;;;;;;17.96;100.00;98369.50;5002716;28;20022;-74
2023/10/14 10:44:02;;;;;;;0.35;0.30;;;;;;;17.61;100.00;98368.09;5002842;28;20045;-74
2023/10/14 10:46:48;;;;;;;1.27;0.55;;;;;;;17.67;100.00;98363.50;5004806;28;20053;-74
2023/10/14 10:49:18;;;;;;;0.40;0.30;;;;;;;17.33;100.00;98357.44;4998221;28;20051;-75
2023/10/14 10:52:12;;;;;;;1.55;0.40;;;;;;;17.56;100.00;98356.31;5010269;28;20318;-74
2023/10/14 10:54:42;;;;;;;1.13;0.40;;;;;;;17.26;100.00;98363.09;5018392;28;20037;-74
2023/10/14 10:57:08;;;;;;;0.80;0.47;;;;;;;17.10;100.00;98378.50;4998927;28;20026;-74
2023/10/14 10:59:37;;;;;;;0.75;0.28;;;;;;;17.01;100.00;98371.88;5017233;28;20196;-74
2023/10/14 11:02:05;;;;;;;;;;;;;;;16.86;100.00;98392.44;5009373;28;20347;-74
2023/10/14 11:04:30;;;;;;;0.45;0.40;;;;;;;16.50;100.00;98398.50;5029233;28;19912;-74
2023/10/14 11:06:56;;;;;;;2.60;0.60;;;;;;;16.61;100.00;98405.72;5036362;28;20060;-74
2023/10/14 11:09:21;;;;;;;0.57;0.55;;;;;;;16.52;100.00;98407.25;5022945;28;20044;-73
2023/10/14 11:11:48;;;;;;;2.88;0.75;;;;;;;16.41;100.00;98404.38;5005755;28;20018;-74
2023/10/14 11:14:17;;;;;;;0.98;0.60;;;;;;;16.26;100.00;98436.09;5031020;28;20040;-73
2023/10/14 11:16:44;;;;;;;3.45;0.98;;;;;;;16.35;100.00;98429.97;5028858;28;20032;-74
2023/10/14 11:19:10;;;;;;;1.17;0.60;;;;;;;16.47;100.00;98420.84;5012162;28;20103;-74
2023/10/14 11:21:37;;;;;;;1.70;0.50;;;;;;;16.35;100.00;98402.66;4997595;28;20018;-74
2023/10/14 11:24:04;;;;;;;1.73;0.70;;;;;;;16.26;100.00;98426.00;5022196;28;20029;-74
2023/10/14 11:26:29;;;;;;;1.17;0.68;;;;;;;16.26;100.00;98436.91;5028234;28;20338;-74
2023/10/14 11:28:54;;;;;;;2.45;0.82;;;;;;;16.31;100.00;98439.72;5024603;28;20025;-74
2023/10/14 11:31:20;;;;;;;2.00;0.40;;;;;;;16.24;100.00;98443.69;5016482;28;20025;-74
2023/10/14 11:33:46;;;;;;;0.60;0.25;;;;;;;16.03;100.00;98445.25;5043404;28;20024;-74
2023/10/14 11:36:17;;;;;;;1.70;0.40;;;;;;;15.82;100.00;98431.28;5027361;28;20026;-74
2023/10/14 11:38:44;;;;;;;1.13;0.25;;;;;;;15.76;100.00;98454.09;5006861;28;20093;-74
2023/10/14 11:41:12;;;;;;;0.63;0.30;;;;;;;15.60;100.00;98438.50;5016816;28;20028;-74
2023/10/14 11:43:42;;;;;;;2.40;0.40;;;;;;;15.66;100.00;98451.13;5004743;28;20021;-74
2023/10/14 11:46:08;;;;;;;0.70;0.30;;;;;;;15.71;100.00;98446.63;5014940;28;20045;-74
2023/10/14 11:48:33;;;;;;;2.28;0.38;;;;;;;15.96;100.00;98446.25;5018718;28;20029;-74
2023/10/14 11:51:03;;;;;;;1.50;0.40;;;;;;;15.93;100.00;98435.84;5029748;28;20030;-73
2023/10/14 11:53:32;;;;;;;0.47;0.20;;;;;;;15.97;100.00;98438.91;5018117;28;20021;-75
2023/10/14 11:55:59;;;;;;;2.33;0.25;;;;;;;15.83;100.00;98445.75;5003225;28;20026;-74
2023/10/14 11:58:26;;;;;;;1.85;0.20;;;;;;;15.76;100.00;98437.72;5019840;28;20025;-74
2023/10/14 12:00:52;;;;;;;1.40;0.20;;;;;;;15.68;100.00;98438.09;5035251;28;20087;-72
2023/10/14 12:03:17;;;;;;;0.20;0.20;;;;;;;15.68;100.00;98432.63;5017909;28;20033;-71
2023/10/14 12:05:42;;;;;;;2.35;0.30;;;;;;;15.67;100.00;98428.28;5021702;28;20326;-72